createdAt,value
2022-11-24T00:01:12.219Z,99723.00
2022-11-24T00:03:45.118Z,99720.91
2022-11-24T00:06:18.726Z,99722.13
2022-11-24T00:08:51.827Z,99727.64
2022-11-24T00:11:27.425Z,99730.42
2022-11-24T00:14:00.227Z,99736.15
2022-11-24T00:16:34.158Z,99730.45
2022-11-24T00:19:09.347Z,99734.20
2022-11-24T00:21:41.711Z,99732.02
2022-11-24T00:24:14.773Z,99735.99
2022-11-24T00:26:47.286Z,99739.34
2022-11-24T00:29:19.907Z,99743.52
2022-11-24T00:31:52.647Z,99739.39
2022-11-24T00:34:25.830Z,99742.91
2022-11-24T00:37:00.812Z,99738.52
2022-11-24T00:39:34.533Z,99741.52
2022-11-24T00:42:07.413Z,99741.52
2022-11-24T00:44:40.633Z,99746.80
2022-11-24T00:47:13.600Z,99749.95
2022-11-24T00:49:46.577Z,99754.12
2022-11-24T00:52:18.919Z,99761.06
2022-11-24T00:54:51.816Z,99765.08
2022-11-24T00:57:25.198Z,99766.09
2022-11-24T00:59:57.854Z,99766.88
2022-11-24T01:02:30.756Z,99766.54
2022-11-24T01:05:03.703Z,99760.13
2022-11-24T01:07:37.017Z,99763.45
2022-11-24T01:10:11.381Z,99764.23
2022-11-24T01:12:44.333Z,99768.48
2022-11-24T01:15:16.855Z,99770.11
2022-11-24T01:17:49.843Z,99767.38
2022-11-24T01:20:23.705Z,99762.93
2022-11-24T01:22:56.044Z,99755.88
2022-11-24T01:25:28.410Z,99757.17
2022-11-24T01:28:01.324Z,99755.77
2022-11-24T01:30:33.844Z,99757.85
2022-11-24T01:33:06.397Z,99754.94
2022-11-24T01:35:39.562Z,99756.44
2022-11-24T01:38:12.028Z,99757.35
2022-11-24T01:40:45.370Z,99763.80
2022-11-24T01:43:23.608Z,99769.89
2022-11-24T01:45:57.426Z,99769.55
2022-11-24T01:48:34.076Z,99775.39
2022-11-24T01:51:13.270Z,99774.54
2022-11-24T01:53:50.551Z,99778.81
2022-11-24T01:56:24.045Z,99775.61
2022-11-24T01:59:01.967Z,99776.77
2022-11-24T02:01:35.549Z,99770.27
2022-11-24T02:04:11.863Z,99768.73
2022-11-24T02:06:47.842Z,99766.17
2022-11-24T02:09:27.837Z,99770.79
2022-11-24T02:12:03.273Z,99772.06
2022-11-24T02:14:39.602Z,99775.52
2022-11-24T02:17:11.974Z,99774.31
2022-11-24T02:19:53.911Z,99775.99
2022-11-24T02:22:35.477Z,99774.33
2022-11-24T02:25:18.245Z,99779.61
2022-11-24T02:27:53.851Z,99779.05
2022-11-24T02:30:26.954Z,99786.55
2022-11-24T02:33:00.426Z,99785.22
2022-11-24T02:35:34.299Z,99779.61
2022-11-24T02:38:06.711Z,99778.60
2022-11-24T02:40:39.489Z,99785.14
2022-11-24T02:43:15.358Z,99786.24
2022-11-24T02:45:47.972Z,99787.67
2022-11-24T02:48:20.781Z,99788.07
2022-11-24T02:50:53.248Z,99783.96
2022-11-24T02:53:27.212Z,99789.30
2022-11-24T02:56:01.188Z,99787.89
2022-11-24T02:58:33.658Z,99793.23
2022-11-24T03:01:07.798Z,99792.27
2022-11-24T03:03:41.840Z,99794.30
2022-11-24T03:06:14.463Z,99795.63
2022-11-24T03:08:46.955Z,99795.41
2022-11-24T03:11:19.628Z,99793.88
2022-11-24T03:13:52.820Z,99794.16
2022-11-24T03:16:25.609Z,99796.59
2022-11-24T03:18:58.122Z,99795.69
2022-11-24T03:21:30.566Z,99794.80
2022-11-24T03:24:03.037Z,99796.67
2022-11-24T03:26:37.091Z,99797.83
2022-11-24T03:29:09.642Z,99796.30
2022-11-24T03:31:42.094Z,99797.09
2022-11-24T03:34:15.591Z,99792.40
2022-11-24T03:36:47.960Z,99794.09
2022-11-24T03:39:20.527Z,99791.73
2022-11-24T03:41:53.668Z,99791.33
2022-11-24T03:44:26.096Z,99785.52
2022-11-24T03:46:58.676Z,99794.38
2022-11-24T03:49:31.067Z,99797.56
2022-11-24T03:52:07.772Z,99798.23
2022-11-24T03:54:40.618Z,99801.77
2022-11-24T03:57:13.327Z,99800.15
2022-11-24T03:59:45.919Z,99804.33
2022-11-24T04:02:18.342Z,99806.61
2022-11-24T04:04:52.690Z,99807.80
2022-11-24T04:07:25.220Z,99808.48
2022-11-24T04:09:57.684Z,99801.64
2022-11-24T04:12:45.145Z,99810.07
2022-11-24T04:15:19.818Z,99811.09
2022-11-24T04:17:52.823Z,99810.52
2022-11-24T04:20:25.715Z,99812.02
2022-11-24T04:22:58.184Z,99811.16
2022-11-24T04:25:30.526Z,99814.60
2022-11-24T04:28:03.439Z,99815.33
2022-11-24T04:30:36.278Z,99811.94
2022-11-24T04:33:08.942Z,99810.59
2022-11-24T04:35:41.488Z,99808.05
2022-11-24T04:38:13.799Z,99813.36
2022-11-24T04:41:06.517Z,99819.39
2022-11-24T04:43:40.865Z,99823.27
2022-11-24T04:46:14.059Z,99821.70
2022-11-24T04:48:46.518Z,99827.15
2022-11-24T04:51:18.883Z,99827.29
2022-11-24T04:53:52.664Z,99832.23
2022-11-24T04:56:25.149Z,99834.20
2022-11-24T04:58:57.468Z,99836.56
2022-11-24T05:01:30.010Z,99834.30
2022-11-24T05:04:03.158Z,99837.95
2022-11-24T05:06:35.645Z,99840.10
2022-11-24T05:09:09.202Z,99839.37
2022-11-24T05:11:42.089Z,99846.66
2022-11-24T05:14:14.431Z,99844.82
2022-11-24T05:16:47.207Z,99848.36
2022-11-24T05:19:20.110Z,99859.68
2022-11-24T05:21:54.404Z,99864.69
2022-11-24T05:24:27.172Z,99865.84
2022-11-24T05:27:00.351Z,99873.67
2022-11-24T05:29:33.290Z,99878.61
2022-11-24T05:32:07.206Z,99880.11
2022-11-24T05:34:39.722Z,99876.83
2022-11-24T05:37:12.597Z,99880.91
2022-11-24T05:39:44.927Z,99881.67
2022-11-24T05:42:34.719Z,99877.38
2022-11-24T05:45:09.901Z,99880.11
2022-11-24T05:47:43.203Z,99881.27
2022-11-24T05:50:17.277Z,99878.75
2022-11-24T05:52:50.198Z,99885.12
2022-11-24T05:55:23.179Z,99887.20
2022-11-24T05:58:02.204Z,99891.98
2022-11-24T06:00:35.786Z,99896.91
2022-11-24T06:03:09.243Z,99890.93
2022-11-24T06:05:41.993Z,99892.05
2022-11-24T06:08:14.879Z,99894.13
2022-11-24T06:10:48.164Z,99901.80
2022-11-24T06:13:20.710Z,99903.41
2022-11-24T06:15:53.646Z,99901.95
2022-11-24T06:18:28.517Z,99909.24
2022-11-24T06:21:10.949Z,99915.86
2022-11-24T06:23:44.283Z,99918.80
2022-11-24T06:26:18.042Z,99923.14
2022-11-24T06:28:50.894Z,99923.46
2022-11-24T06:31:23.748Z,99918.17
2022-11-24T06:33:57.743Z,99920.30
2022-11-24T06:36:31.062Z,99919.02
2022-11-24T06:39:06.180Z,99920.70
2022-11-24T06:41:39.637Z,99920.66
2022-11-24T06:44:15.286Z,99921.95
2022-11-24T06:46:52.707Z,99918.30
2022-11-24T06:49:26.851Z,99922.85
2022-11-24T06:52:02.403Z,99926.55
2022-11-24T06:54:37.578Z,99930.35
2022-11-24T06:57:14.418Z,99931.99
2022-11-24T06:59:47.818Z,99941.66
2022-11-24T07:02:20.283Z,99944.67
2022-11-24T07:04:52.774Z,99948.27
2022-11-24T07:07:25.797Z,99948.17
2022-11-24T07:09:58.274Z,99948.98
2022-11-24T07:12:35.285Z,99951.17
2022-11-24T07:15:11.290Z,99956.55
2022-11-24T07:17:45.540Z,99963.38
2022-11-24T07:20:18.670Z,99968.77
2022-11-24T07:22:51.730Z,99971.64
2022-11-24T07:25:24.201Z,99971.88
2022-11-24T07:28:01.482Z,99972.42
2022-11-24T07:30:35.295Z,99975.60
2022-11-24T07:33:07.671Z,99977.43
2022-11-24T07:35:40.122Z,99978.25
2022-11-24T07:38:12.491Z,99982.50
2022-11-24T07:40:44.909Z,99980.41
2022-11-24T07:43:20.368Z,99984.08
2022-11-24T07:45:57.262Z,99984.23
2022-11-24T07:48:30.686Z,99988.73
2022-11-24T07:51:04.481Z,99988.95
2022-11-24T07:53:37.868Z,99988.84
2022-11-24T07:56:12.730Z,99987.95
2022-11-24T07:58:49.775Z,99985.67
2022-11-24T08:01:25.244Z,99994.25
2022-11-24T08:03:58.167Z,99996.07
2022-11-24T08:06:39.766Z,100000.19
2022-11-24T08:09:18.047Z,100001.80
2022-11-24T08:11:50.764Z,100006.39
2022-11-24T08:14:27.858Z,100009.89
2022-11-24T08:17:02.346Z,100015.99
2022-11-24T08:19:36.319Z,100019.11
2022-11-24T08:22:10.535Z,100022.83
2022-11-24T08:24:47.944Z,100021.76
2022-11-24T08:27:21.368Z,100026.20
2022-11-24T08:29:53.743Z,100030.35
2022-11-24T08:32:26.686Z,100032.80
2022-11-24T08:35:13.451Z,100032.71
2022-11-24T08:37:47.047Z,100029.45
2022-11-24T08:40:22.917Z,100030.01
2022-11-24T08:42:55.637Z,100028.17
2022-11-24T08:45:30.770Z,100031.28
2022-11-24T08:48:03.821Z,100031.46
2022-11-24T08:50:36.394Z,100028.52
2022-11-24T08:53:08.810Z,100027.98
2022-11-24T08:55:42.221Z,100026.30
2022-11-24T08:58:17.197Z,100029.17
2022-11-24T09:00:51.542Z,100026.40
2022-11-24T09:03:24.783Z,100024.98
2022-11-24T09:05:58.075Z,100026.84
2022-11-24T09:08:32.699Z,100026.10
2022-11-24T09:11:08.455Z,100024.31
2022-11-24T09:13:42.478Z,100026.02
2022-11-24T09:16:17.911Z,100032.54
2022-11-24T09:18:55.997Z,100032.00
2022-11-24T09:21:30.126Z,100031.11
2022-11-24T09:24:05.343Z,100035.79
2022-11-24T09:26:46.155Z,100035.21
2022-11-24T09:29:21.284Z,100038.64
2022-11-24T09:31:53.643Z,100041.08
2022-11-24T09:34:26.095Z,100039.34
2022-11-24T09:36:59.354Z,100039.85
2022-11-24T09:39:32.202Z,100036.05
2022-11-24T09:42:17.011Z,100035.98
2022-11-24T09:45:15.342Z,100032.60
2022-11-24T09:48:04.813Z,100030.31
2022-11-24T09:50:40.276Z,100029.20
2022-11-24T09:53:19.007Z,100022.83
2022-11-24T09:55:55.603Z,100021.98
2022-11-24T09:58:50.759Z,100020.55
2022-11-24T10:01:26.085Z,100018.52
2022-11-24T10:04:05.588Z,100018.19
2022-11-24T10:06:48.957Z,100013.84
2022-11-24T10:09:39.185Z,100021.29
2022-11-24T10:12:24.423Z,100026.00
2022-11-24T10:15:14.923Z,100021.71
2022-11-24T10:17:56.115Z,100023.08
2022-11-24T10:20:35.848Z,100019.94
2022-11-24T10:23:25.621Z,100020.93
2022-11-24T10:26:01.614Z,100022.66
2022-11-24T10:28:37.037Z,100020.98
2022-11-24T10:31:24.103Z,100012.77
2022-11-24T10:33:58.244Z,100018.60
2022-11-24T10:36:45.001Z,100015.13
2022-11-24T10:39:23.731Z,100010.81
2022-11-24T10:42:02.753Z,100006.56
2022-11-24T10:44:35.779Z,100002.25
2022-11-24T10:47:19.925Z,100003.83
2022-11-24T10:50:03.254Z,100006.52
2022-11-24T10:52:44.051Z,100000.48
2022-11-24T10:55:21.594Z,100000.85
2022-11-24T10:57:54.598Z,100002.38
2022-11-24T11:00:37.139Z,100001.69
2022-11-24T11:03:21.730Z,100003.48
2022-11-24T11:05:58.400Z,100004.20
2022-11-24T11:08:32.253Z,100010.80
2022-11-24T11:11:22.045Z,100013.23
2022-11-24T11:14:03.989Z,100009.19
2022-11-24T11:16:41.305Z,100008.06
2022-11-24T11:19:50.680Z,100005.91
2022-11-24T11:22:29.054Z,100002.05
2022-11-24T11:25:24.982Z,100003.89
2022-11-24T11:28:19.250Z,100002.39
2022-11-24T11:31:22.134Z,100000.83
2022-11-24T11:34:21.882Z,99999.09
2022-11-24T11:36:57.393Z,100000.73
2022-11-24T11:39:33.558Z,100004.02
2022-11-24T11:42:45.229Z,100003.21
2022-11-24T11:45:26.680Z,99999.58
2022-11-24T11:48:12.011Z,99999.18
2022-11-24T11:53:50.339Z,100004.97
2022-11-24T11:56:30.460Z,100002.98
2022-11-24T11:59:24.773Z,100001.70
2022-11-24T12:02:24.687Z,99997.61
2022-11-24T12:05:02.459Z,99998.59
2022-11-24T12:07:50.268Z,99995.59
2022-11-24T12:10:35.154Z,99990.12
2022-11-24T12:13:43.622Z,99992.02
2022-11-24T12:16:35.810Z,99996.02
2022-11-24T12:19:29.212Z,99995.59
2022-11-24T12:22:15.108Z,99994.55
2022-11-24T12:24:57.520Z,99995.08
2022-11-24T12:27:46.619Z,99996.70
2022-11-24T12:30:22.490Z,99996.13
2022-11-24T12:33:18.309Z,99998.92
2022-11-24T12:36:03.780Z,100003.08
2022-11-24T12:38:56.420Z,99998.05
2022-11-24T12:41:42.775Z,100007.01
2022-11-24T12:44:32.792Z,100005.95
2022-11-24T12:47:17.980Z,100008.36
2022-11-24T12:50:04.605Z,100007.16
2022-11-24T12:52:41.347Z,100009.58
2022-11-24T12:55:19.863Z,100011.73
2022-11-24T12:58:10.592Z,100009.17
2022-11-24T13:00:59.508Z,100010.49
2022-11-24T13:03:46.763Z,100012.65
2022-11-24T13:06:23.695Z,100017.93
2022-11-24T13:08:58.183Z,100018.42
2022-11-24T13:11:41.150Z,100019.17
2022-11-24T13:14:20.266Z,100020.66
2022-11-24T13:17:29.298Z,100022.45
2022-11-24T13:19:53.859Z,100026.14
2022-11-24T13:22:31.401Z,100028.19
2022-11-24T13:25:22.556Z,100031.71
2022-11-24T13:27:58.005Z,100032.65
2022-11-24T13:31:09.843Z,100029.77
2022-11-24T13:33:43.743Z,100023.43
2022-11-24T13:36:33.969Z,100027.13
2022-11-24T13:39:20.385Z,100030.45
2022-11-24T13:42:09.783Z,100027.09
2022-11-24T13:45:03.286Z,100024.44
2022-11-24T13:47:41.926Z,100028.58
2022-11-24T13:50:48.570Z,100031.77
2022-11-24T13:53:34.358Z,100030.05
2022-11-24T13:56:23.397Z,100034.91
2022-11-24T13:58:58.261Z,100035.04
2022-11-24T14:01:32.634Z,100037.91
2022-11-24T14:04:31.907Z,100038.41
2022-11-24T14:07:09.446Z,100040.95
2022-11-24T14:09:47.355Z,100042.79
2022-11-24T14:12:22.147Z,100047.55
2022-11-24T14:14:56.862Z,100053.25
2022-11-24T14:17:31.694Z,100059.05
2022-11-24T14:20:25.437Z,100051.66
2022-11-24T14:22:57.971Z,100054.19
2022-11-24T14:25:33.390Z,100048.20
2022-11-24T14:28:14.736Z,100061.84
2022-11-24T14:30:47.179Z,100058.55
2022-11-24T14:33:22.194Z,100061.38
2022-11-24T14:35:55.423Z,100070.88
2022-11-24T14:38:29.622Z,100070.72
2022-11-24T14:41:25.608Z,100068.42
2022-11-24T14:44:16.680Z,100076.68
2022-11-24T14:46:49.764Z,100074.44
2022-11-24T14:49:25.153Z,100077.61
2022-11-24T14:52:03.668Z,100079.92
2022-11-24T14:54:38.748Z,100086.02
2022-11-24T14:57:27.273Z,100087.62
2022-11-24T15:00:19.582Z,100088.84
2022-11-24T15:02:54.833Z,100088.80
2022-11-24T15:05:48.755Z,100087.57
2022-11-24T15:08:23.364Z,100086.75
2022-11-24T15:11:03.942Z,100089.40
2022-11-24T15:13:40.363Z,100094.22
2022-11-24T15:16:25.471Z,100091.66
2022-11-24T15:19:03.457Z,100094.50
2022-11-24T15:21:38.343Z,100096.44
2022-11-24T15:24:18.958Z,100097.20
2022-11-24T15:26:51.296Z,100104.35
2022-11-24T15:29:24.038Z,100106.86
2022-11-24T15:32:00.570Z,100105.96
2022-11-24T15:34:33.296Z,100109.39
2022-11-24T15:37:07.459Z,100106.76
2022-11-24T15:39:39.821Z,100104.30
2022-11-24T15:42:15.557Z,100107.01
2022-11-24T15:44:49.602Z,100105.89
2022-11-24T15:47:22.460Z,100106.45
2022-11-24T15:49:54.964Z,100108.10
2022-11-24T15:52:27.618Z,100111.46
2022-11-24T15:55:00.456Z,100111.02
2022-11-24T15:57:34.406Z,100106.20
2022-11-24T16:00:08.982Z,100107.88
2022-11-24T16:02:42.068Z,100105.55
2022-11-24T16:05:16.935Z,100104.05
2022-11-24T16:07:49.852Z,100109.77
2022-11-24T16:10:28.200Z,100106.79
2022-11-24T16:13:00.687Z,100109.77
2022-11-24T16:15:33.372Z,100108.60
2022-11-24T16:18:07.574Z,100111.64
2022-11-24T16:20:40.906Z,100113.92
2022-11-24T16:23:14.387Z,100116.79
2022-11-24T16:25:47.056Z,100120.77
2022-11-24T16:28:20.418Z,100119.16
2022-11-24T16:30:54.057Z,100116.20
2022-11-24T16:33:26.714Z,100115.48
2022-11-24T16:35:59.813Z,100116.24
2022-11-24T16:38:32.363Z,100118.02
2022-11-24T16:41:04.918Z,100110.44
2022-11-24T16:43:37.290Z,100109.95
2022-11-24T16:46:21.176Z,100111.15
2022-11-24T16:49:00.315Z,100108.40
2022-11-24T16:51:35.201Z,100108.91
2022-11-24T16:54:08.643Z,100107.73
2022-11-24T16:56:44.111Z,100109.34
2022-11-24T16:59:17.479Z,100106.63
2022-11-24T17:01:52.186Z,100112.16
2022-11-24T17:04:25.148Z,100111.13
2022-11-24T17:06:59.388Z,100107.92
2022-11-24T17:09:36.008Z,100109.40
2022-11-24T17:12:14.270Z,100116.64
2022-11-24T17:15:09.327Z,100113.75
2022-11-24T17:17:55.207Z,100118.48
2022-11-24T17:20:32.028Z,100126.13
2022-11-24T17:23:04.759Z,100123.87
2022-11-24T17:25:37.269Z,100125.21
2022-11-24T17:28:11.053Z,100128.63
2022-11-24T17:30:43.633Z,100132.48
2022-11-24T17:33:15.974Z,100137.78
2022-11-24T17:35:49.327Z,100140.16
2022-11-24T17:38:22.338Z,100141.42
2022-11-24T17:40:55.083Z,100140.99
2022-11-24T17:43:28.774Z,100139.75
2022-11-24T17:46:03.656Z,100141.84
2022-11-24T17:48:38.582Z,100138.15
2022-11-24T17:51:14.017Z,100141.20
2022-11-24T17:53:49.486Z,100137.93
2022-11-24T17:56:25.441Z,100135.33
2022-11-24T17:59:01.197Z,100140.52
2022-11-24T18:01:35.566Z,100139.14
2022-11-24T18:04:08.251Z,100138.98
2022-11-24T18:06:40.791Z,100137.49
2022-11-24T18:09:13.523Z,100135.05
2022-11-24T18:11:47.939Z,100134.16
2022-11-24T18:14:20.492Z,100136.45
2022-11-24T18:16:53.210Z,100135.60
2022-11-24T18:19:26.434Z,100141.30
2022-11-24T18:21:58.776Z,100137.69
2022-11-24T18:24:31.081Z,100139.55
2022-11-24T18:27:03.574Z,100139.42
2022-11-24T18:29:36.112Z,100134.95
2022-11-24T18:32:09.678Z,100142.95
2022-11-24T18:34:43.363Z,100143.70
2022-11-24T18:37:16.584Z,100139.55
2022-11-24T18:39:48.931Z,100141.80
2022-11-24T18:42:21.291Z,100142.69
2022-11-24T18:44:54.479Z,100150.46
2022-11-24T18:47:27.062Z,100149.00
2022-11-24T18:50:00.534Z,100152.68
2022-11-24T18:52:33.495Z,100154.71
2022-11-24T18:55:06.780Z,100153.77
2022-11-24T18:57:41.435Z,100152.25
2022-11-24T19:00:18.935Z,100156.15
2022-11-24T19:02:55.505Z,100154.15
2022-11-24T19:05:30.104Z,100154.28
2022-11-24T19:08:04.297Z,100150.59
2022-11-24T19:10:42.040Z,100147.54
2022-11-24T19:13:15.830Z,100144.39
2022-11-24T19:15:52.170Z,100145.96
2022-11-24T19:18:26.829Z,100143.54
2022-11-24T19:21:02.682Z,100143.92
2022-11-24T19:23:37.665Z,100151.40
2022-11-24T19:26:11.965Z,100153.03
2022-11-24T19:28:47.630Z,100152.21
2022-11-24T19:31:20.971Z,100157.86
2022-11-24T19:33:54.893Z,100161.37
2022-11-24T19:36:28.106Z,100166.30
2022-11-24T19:39:05.204Z,100158.88
2022-11-24T19:41:40.748Z,100158.49
2022-11-24T19:44:17.880Z,100158.44
2022-11-24T19:46:50.343Z,100157.10
2022-11-24T19:49:22.880Z,100161.77
2022-11-24T19:51:56.753Z,100166.89
2022-11-24T19:54:29.390Z,100168.30
2022-11-24T19:57:01.722Z,100168.02
2022-11-24T19:59:34.752Z,100170.15
2022-11-24T20:02:10.465Z,100170.65
2022-11-24T20:04:45.108Z,100174.23
2022-11-24T20:07:19.154Z,100170.85
2022-11-24T20:09:51.657Z,100167.46
2022-11-24T20:12:24.441Z,100170.01
2022-11-24T20:14:56.930Z,100174.05
2022-11-24T20:17:33.017Z,100177.00
2022-11-24T20:20:08.531Z,100174.77
2022-11-24T20:22:42.581Z,100173.01
2022-11-24T20:25:15.538Z,100176.70
2022-11-24T20:27:48.024Z,100180.45
2022-11-24T20:30:20.500Z,100184.54
2022-11-24T20:32:53.095Z,100183.48
2022-11-24T20:35:25.558Z,100179.81
2022-11-24T20:37:59.941Z,100183.83
2022-11-24T20:40:32.718Z,100186.94
2022-11-24T20:43:05.502Z,100185.13
2022-11-24T20:45:39.058Z,100185.89
2022-11-24T20:48:12.414Z,100186.77
2022-11-24T20:50:49.740Z,100187.66
2022-11-24T20:53:24.596Z,100185.70
2022-11-24T20:56:06.084Z,100189.24
2022-11-24T20:58:41.657Z,100193.88
2022-11-24T21:01:18.045Z,100197.59
2022-11-24T21:03:56.401Z,100204.97
2022-11-24T21:06:30.858Z,100207.15
2022-11-24T21:09:04.114Z,100206.14
2022-11-24T21:11:37.342Z,100202.66
2022-11-24T21:14:10.455Z,100197.67
2022-11-24T21:16:43.976Z,100197.58
2022-11-24T21:19:18.889Z,100199.40
2022-11-24T21:21:51.909Z,100203.41
2022-11-24T21:24:24.692Z,100200.07
2022-11-24T21:26:56.978Z,100204.30
2022-11-24T21:29:29.691Z,100211.04
2022-11-24T21:32:02.739Z,100214.17
2022-11-24T21:34:35.402Z,100211.46
2022-11-24T21:37:08.371Z,100211.00
2022-11-24T21:39:44.690Z,100208.77
2022-11-24T21:42:17.343Z,100209.29
2022-11-24T21:44:50.362Z,100217.10
2022-11-24T21:47:22.668Z,100222.64
2022-11-24T21:49:55.550Z,100225.19
2022-11-24T21:52:27.987Z,100222.08
2022-11-24T21:55:01.141Z,100222.73
2022-11-24T21:57:34.482Z,100225.77
2022-11-24T22:00:12.054Z,100230.20
2022-11-24T22:02:45.032Z,100234.80
2022-11-24T22:05:18.008Z,100233.98
2022-11-24T22:07:50.612Z,100236.77
2022-11-24T22:10:23.509Z,100235.31
2022-11-24T22:12:55.925Z,100235.16
2022-11-24T22:15:28.596Z,100236.47
2022-11-24T22:18:02.004Z,100244.66
2022-11-24T22:20:34.770Z,100241.61
2022-11-24T22:23:07.100Z,100243.23
2022-11-24T22:25:39.593Z,100242.64
2022-11-24T22:28:12.193Z,100231.67
2022-11-24T22:30:44.675Z,100237.89
2022-11-24T22:33:17.965Z,100242.98
2022-11-24T22:35:59.722Z,100242.97
2022-11-24T22:38:34.105Z,100244.41
2022-11-24T22:41:08.522Z,100248.27
2022-11-24T22:43:42.738Z,100248.97
2022-11-24T22:46:17.921Z,100251.13
2022-11-24T22:48:53.084Z,100250.61
2022-11-24T22:51:27.950Z,100252.57
2022-11-24T22:54:02.361Z,100252.71
2022-11-24T22:56:35.738Z,100254.11
2022-11-24T22:59:08.022Z,100251.64
2022-11-24T23:01:40.448Z,100250.88
2022-11-24T23:04:13.250Z,100254.60
2022-11-24T23:06:45.903Z,100252.73
2022-11-24T23:09:18.395Z,100253.54
2022-11-24T23:11:51.835Z,100259.73
2022-11-24T23:14:24.405Z,100257.84
2022-11-24T23:17:00.898Z,100265.15
2022-11-24T23:19:33.367Z,100265.34
2022-11-24T23:22:05.852Z,100264.77
2022-11-24T23:24:38.342Z,100265.73
2022-11-24T23:27:10.719Z,100271.81
2022-11-24T23:29:43.136Z,100276.65
2022-11-24T23:32:15.619Z,100277.47
2022-11-24T23:34:48.195Z,100281.35
2022-11-24T23:37:26.454Z,100287.02
2022-11-24T23:40:06.862Z,100294.05
2022-11-24T23:42:40.775Z,100295.55
2022-11-24T23:45:15.989Z,100298.95
2022-11-24T23:47:49.973Z,100303.26
2022-11-24T23:50:24.104Z,100303.11
2022-11-24T23:52:58.617Z,100308.98
2022-11-24T23:55:32.020Z,100311.02
2022-11-24T23:58:05.295Z,100314.75
